createdAt,value
2022-08-26T00:01:29.716Z,21.40
2022-08-26T00:03:59.764Z,21.40
2022-08-26T00:06:28.807Z,21.40
2022-08-26T00:09:03.987Z,21.40
2022-08-26T00:11:44.006Z,21.40
2022-08-26T00:14:15.268Z,21.50
2022-08-26T00:16:47.638Z,21.50
2022-08-26T00:19:18.527Z,21.60
2022-08-26T00:21:48.727Z,21.60
2022-08-26T00:24:19.576Z,21.70
2022-08-26T00:26:48.536Z,21.70
2022-08-26T00:29:19.554Z,21.80
2022-08-26T00:31:50.574Z,21.80
2022-08-26T00:34:26.014Z,21.80
2022-08-26T00:36:54.876Z,21.90
2022-08-26T00:39:23.877Z,21.90
2022-08-26T00:41:52.795Z,21.80
2022-08-26T00:44:23.624Z,21.80
2022-08-26T00:46:56.664Z,21.70
2022-08-26T00:49:38.958Z,21.60
2022-08-26T00:52:11.973Z,21.60
2022-08-26T00:54:47.433Z,21.50
2022-08-26T00:57:19.275Z,21.50
2022-08-26T00:59:55.815Z,21.40
2022-08-26T01:02:25.641Z,21.40
2022-08-26T01:04:58.125Z,21.40
2022-08-26T01:07:31.172Z,21.40
2022-08-26T01:10:01.495Z,21.40
2022-08-26T01:12:33.341Z,21.30
2022-08-26T01:15:04.996Z,21.30
2022-08-26T01:17:33.982Z,21.30
2022-08-26T01:20:08.355Z,21.20
2022-08-26T01:22:48.135Z,21.20
2022-08-26T01:25:22.637Z,21.20
2022-08-26T01:27:52.195Z,21.10
2022-08-26T01:30:21.607Z,21.10
2022-08-26T01:32:53.345Z,21.10
2022-08-26T01:35:22.506Z,21.10
2022-08-26T01:37:56.575Z,21.00
2022-08-26T01:40:29.502Z,21.00
2022-08-26T01:42:58.666Z,21.00
2022-08-26T01:45:30.807Z,20.90
2022-08-26T01:48:02.058Z,20.90
2022-08-26T01:50:34.634Z,21.00
2022-08-26T01:53:07.937Z,21.00
2022-08-26T01:55:39.529Z,20.90
2022-08-26T01:58:14.843Z,21.00
2022-08-26T02:00:44.088Z,20.90
2022-08-26T02:03:19.054Z,20.90
2022-08-26T02:05:51.416Z,21.00
2022-08-26T02:08:25.308Z,21.00
2022-08-26T02:13:33.124Z,21.00
2022-08-26T02:16:04.580Z,21.00
2022-08-26T02:18:36.695Z,21.10
2022-08-26T02:21:07.188Z,21.10
2022-08-26T02:23:39.005Z,21.10
2022-08-26T02:26:11.657Z,21.10
2022-08-26T02:28:50.320Z,21.10
2022-08-26T02:31:20.201Z,21.10
2022-08-26T02:33:49.870Z,21.10
2022-08-26T02:36:22.436Z,21.00
2022-08-26T02:38:53.588Z,21.00
2022-08-26T02:41:24.654Z,21.00
2022-08-26T02:43:53.555Z,21.00
2022-08-26T02:46:27.969Z,21.10
2022-08-26T02:48:58.945Z,21.10
2022-08-26T02:51:27.805Z,21.00
2022-08-26T02:53:58.665Z,21.00
2022-08-26T02:56:28.016Z,21.00
2022-08-26T02:58:56.867Z,21.00
2022-08-26T03:01:28.272Z,21.00
2022-08-26T03:03:58.037Z,21.00
2022-08-26T03:06:27.342Z,21.00
2022-08-26T03:08:57.886Z,21.00
2022-08-26T03:11:32.284Z,21.00
2022-08-26T03:14:03.479Z,21.00
2022-08-26T03:16:34.380Z,21.00
2022-08-26T03:19:04.103Z,20.90
2022-08-26T03:21:33.522Z,20.90
2022-08-26T03:24:04.016Z,20.90
2022-08-26T03:26:33.251Z,20.90
2022-08-26T03:29:19.682Z,20.90
2022-08-26T03:31:48.603Z,20.90
2022-08-26T03:34:18.830Z,21.00
2022-08-26T03:36:47.748Z,21.00
2022-08-26T03:39:18.782Z,20.90
2022-08-26T03:41:47.700Z,20.90
2022-08-26T03:44:16.637Z,21.00
2022-08-26T03:46:46.576Z,21.00
2022-08-26T03:49:15.519Z,21.00
2022-08-26T03:51:44.450Z,21.00
2022-08-26T03:54:13.870Z,21.00
2022-08-26T03:56:44.247Z,21.00
2022-08-26T03:59:15.519Z,20.90
2022-08-26T04:01:44.516Z,20.90
2022-08-26T04:04:15.557Z,20.90
2022-08-26T04:06:45.345Z,20.90
2022-08-26T04:09:16.441Z,20.90
2022-08-26T04:11:50.674Z,20.90
2022-08-26T04:14:21.384Z,21.00
2022-08-26T04:16:51.403Z,21.10
2022-08-26T04:19:21.845Z,21.10
2022-08-26T04:21:53.435Z,21.10
2022-08-26T04:24:24.324Z,21.10
2022-08-26T04:26:56.687Z,21.10
2022-08-26T04:29:27.386Z,21.10
2022-08-26T04:31:56.787Z,21.20
2022-08-26T04:34:28.380Z,21.20
2022-08-26T04:36:58.115Z,21.20
2022-08-26T04:39:27.745Z,21.20
2022-08-26T04:41:58.452Z,21.20
2022-08-26T04:44:30.678Z,21.30
2022-08-26T04:47:00.031Z,21.30
2022-08-26T04:49:29.136Z,21.30
2022-08-26T04:52:05.568Z,21.30
2022-08-26T04:54:34.376Z,21.40
2022-08-26T04:57:04.847Z,21.50
2022-08-26T04:59:38.480Z,21.70
2022-08-26T05:02:08.706Z,21.80
2022-08-26T05:04:38.107Z,22.00
2022-08-26T05:07:08.367Z,22.30
2022-08-26T05:09:38.697Z,22.40
2022-08-26T05:12:09.724Z,22.60
2022-08-26T05:14:38.661Z,22.70
2022-08-26T05:17:07.777Z,22.70
2022-08-26T05:19:37.512Z,22.70
2022-08-26T05:22:13.198Z,22.80
2022-08-26T05:24:42.485Z,22.90
2022-08-26T05:27:14.988Z,23.10
2022-08-26T05:29:44.307Z,23.30
2022-08-26T05:32:13.443Z,23.30
2022-08-26T05:34:43.232Z,23.50
2022-08-26T05:37:13.611Z,23.50
2022-08-26T05:39:43.559Z,23.40
2022-08-26T05:42:21.818Z,23.40
2022-08-26T05:44:55.605Z,23.50
2022-08-26T05:47:24.860Z,23.50
2022-08-26T05:49:54.063Z,23.50
2022-08-26T05:52:25.886Z,23.50
2022-08-26T05:54:55.426Z,23.50
2022-08-26T05:57:25.991Z,23.50
2022-08-26T05:59:55.093Z,23.50
2022-08-26T06:02:25.541Z,23.80
2022-08-26T06:04:54.954Z,23.70
2022-08-26T06:07:44.542Z,23.80
2022-08-26T06:10:33.370Z,24.00
2022-08-26T06:13:09.258Z,24.10
2022-08-26T06:15:45.864Z,24.40
2022-08-26T06:18:17.191Z,24.80
2022-08-26T06:20:53.740Z,25.10
2022-08-26T06:23:45.839Z,25.20
2022-08-26T06:26:15.961Z,25.20
2022-08-26T06:28:46.351Z,25.00
2022-08-26T06:31:17.301Z,24.80
2022-08-26T06:33:46.992Z,24.80
2022-08-26T06:36:20.481Z,25.00
2022-08-26T06:38:50.678Z,24.90
2022-08-26T06:41:21.395Z,25.20
2022-08-26T06:43:52.011Z,25.60
2022-08-26T06:46:23.249Z,25.50
2022-08-26T06:48:55.634Z,25.30
2022-08-26T06:51:27.129Z,25.40
2022-08-26T06:53:59.756Z,25.50
2022-08-26T06:56:31.023Z,25.40
2022-08-26T06:59:01.568Z,25.40
2022-08-26T07:01:33.469Z,25.50
2022-08-26T07:04:05.065Z,25.40
2022-08-26T07:06:41.975Z,25.50
2022-08-26T07:09:12.453Z,25.40
2022-08-26T07:11:42.995Z,25.50
2022-08-26T07:14:13.953Z,25.70
2022-08-26T07:16:43.305Z,25.60
2022-08-26T07:19:12.666Z,25.50
2022-08-26T07:21:42.665Z,25.50
2022-08-26T07:24:12.423Z,25.40
2022-08-26T07:26:43.079Z,25.50
2022-08-26T07:29:15.355Z,25.70
2022-08-26T07:31:47.112Z,25.80
2022-08-26T07:34:17.783Z,25.80
2022-08-26T07:36:46.784Z,25.90
2022-08-26T07:39:18.250Z,25.80
2022-08-26T07:41:48.100Z,25.80
2022-08-26T07:44:19.642Z,26.00
2022-08-26T07:46:53.233Z,26.10
2022-08-26T07:49:23.353Z,26.00
2022-08-26T07:51:52.859Z,26.20
2022-08-26T07:54:27.075Z,26.40
2022-08-26T07:56:56.973Z,26.60
2022-08-26T07:59:27.307Z,26.40
2022-08-26T08:01:58.080Z,26.50
2022-08-26T08:04:26.917Z,26.50
2022-08-26T08:06:56.686Z,26.80
2022-08-26T08:09:26.148Z,27.00
2022-08-26T08:11:56.011Z,27.20
2022-08-26T08:14:26.678Z,27.40
2022-08-26T08:16:57.206Z,27.90
2022-08-26T08:19:28.393Z,28.10
2022-08-26T08:22:17.911Z,27.90
2022-08-26T08:24:49.929Z,28.20
2022-08-26T08:27:24.138Z,28.60
2022-08-26T08:29:55.967Z,29.10
2022-08-26T08:32:25.326Z,29.40
2022-08-26T08:34:54.627Z,29.00
2022-08-26T08:37:23.753Z,29.00
2022-08-26T08:39:52.688Z,29.20
2022-08-26T08:42:45.958Z,29.20
2022-08-26T08:45:23.768Z,29.00
2022-08-26T08:47:57.129Z,29.30
2022-08-26T08:50:30.238Z,29.40
2022-08-26T08:53:11.898Z,30.00
2022-08-26T08:55:50.887Z,29.70
2022-08-26T08:58:23.700Z,29.70
2022-08-26T09:01:01.743Z,29.70
2022-08-26T09:03:43.167Z,29.90
2022-08-26T09:06:19.174Z,29.50
2022-08-26T09:08:50.688Z,29.30
2022-08-26T09:11:21.427Z,29.20
2022-08-26T09:13:53.899Z,29.10
2022-08-26T09:16:29.270Z,29.00
2022-08-26T09:19:19.361Z,29.00
2022-08-26T09:21:56.975Z,29.20
2022-08-26T09:24:28.545Z,28.90
2022-08-26T09:26:59.485Z,29.00
2022-08-26T09:29:30.318Z,29.00
2022-08-26T09:32:20.220Z,29.20
2022-08-26T09:34:58.991Z,29.00
2022-08-26T09:37:40.352Z,29.00
2022-08-26T09:40:27.013Z,29.00
2022-08-26T09:43:22.842Z,28.80
2022-08-26T09:45:59.111Z,28.90
2022-08-26T09:48:36.058Z,28.90
2022-08-26T09:51:07.375Z,28.80
2022-08-26T09:53:51.777Z,29.30
2022-08-26T09:56:29.748Z,29.80
2022-08-26T09:58:59.378Z,29.60
2022-08-26T10:01:32.888Z,29.60
2022-08-26T10:04:10.090Z,29.70
2022-08-26T10:06:43.457Z,30.10
2022-08-26T10:09:18.033Z,29.80
2022-08-26T10:11:51.698Z,30.20
2022-08-26T10:14:25.951Z,30.30
2022-08-26T10:17:01.822Z,30.60
2022-08-26T10:19:55.654Z,30.60
2022-08-26T10:22:30.179Z,30.20
2022-08-26T10:25:03.857Z,30.40
2022-08-26T10:27:51.026Z,30.50
2022-08-26T10:30:24.433Z,30.90
2022-08-26T10:32:58.195Z,30.50
2022-08-26T10:35:29.373Z,30.10
2022-08-26T10:38:04.313Z,30.40
2022-08-26T10:40:43.850Z,30.40
2022-08-26T10:43:19.454Z,30.50
2022-08-26T10:45:52.435Z,30.50
2022-08-26T10:48:35.595Z,30.70
2022-08-26T10:51:08.665Z,30.90
2022-08-26T10:53:46.614Z,30.40
2022-08-26T10:56:31.269Z,29.90
2022-08-26T10:59:12.234Z,30.00
2022-08-26T11:01:50.845Z,29.80
2022-08-26T11:04:37.640Z,29.80
2022-08-26T11:07:46.389Z,29.60
2022-08-26T11:10:47.510Z,30.00
2022-08-26T11:13:19.936Z,30.00
2022-08-26T11:16:01.076Z,30.10
2022-08-26T11:18:51.289Z,30.40
2022-08-26T11:22:06.380Z,30.30
2022-08-26T11:24:47.748Z,30.50
2022-08-26T11:27:55.643Z,30.40
2022-08-26T11:30:56.925Z,30.70
2022-08-26T11:33:48.782Z,30.80
2022-08-26T11:36:55.863Z,31.10
2022-08-26T11:39:30.161Z,30.80
2022-08-26T11:42:03.344Z,30.40
2022-08-26T11:44:40.666Z,30.50
2022-08-26T11:47:13.594Z,30.30
2022-08-26T11:49:42.552Z,30.60
2022-08-26T11:52:15.443Z,30.50
2022-08-26T11:55:01.693Z,30.10
2022-08-26T11:57:32.329Z,30.10
2022-08-26T12:00:01.836Z,30.20
2022-08-26T12:02:32.274Z,30.20
2022-08-26T12:05:02.318Z,29.90
2022-08-26T12:07:31.681Z,29.90
2022-08-26T12:10:07.145Z,29.90
2022-08-26T12:12:38.991Z,29.80
2022-08-26T12:15:17.607Z,29.70
2022-08-26T12:17:53.360Z,29.70
2022-08-26T12:20:46.150Z,29.60
2022-08-26T12:23:26.881Z,29.60
2022-08-26T12:26:05.804Z,29.60
2022-08-26T12:28:35.137Z,29.80
2022-08-26T12:31:05.959Z,30.00
2022-08-26T12:33:37.472Z,29.90
2022-08-26T12:36:07.457Z,30.10
2022-08-26T12:38:40.715Z,30.00
2022-08-26T12:41:09.876Z,30.00
2022-08-26T12:43:42.554Z,29.90
2022-08-26T12:46:14.137Z,29.90
2022-08-26T12:48:48.956Z,29.70
2022-08-26T12:51:25.881Z,29.70
2022-08-26T12:53:55.620Z,29.70
2022-08-26T12:56:31.146Z,29.50
2022-08-26T12:59:05.762Z,29.10
2022-08-26T13:01:40.475Z,28.80
2022-08-26T13:04:34.197Z,28.50
2022-08-26T13:07:24.546Z,28.00
2022-08-26T13:09:54.747Z,27.70
2022-08-26T13:12:30.345Z,27.50
2022-08-26T13:15:00.900Z,27.20
2022-08-26T13:17:31.494Z,27.00
2022-08-26T13:20:04.116Z,27.00
2022-08-26T13:22:33.750Z,26.70
2022-08-26T13:25:02.764Z,26.60
2022-08-26T13:27:31.647Z,26.50
2022-08-26T13:30:01.876Z,26.50
2022-08-26T13:32:30.757Z,26.50
2022-08-26T13:35:05.677Z,26.60
2022-08-26T13:37:35.670Z,26.70
2022-08-26T13:40:06.489Z,26.80
2022-08-26T13:42:35.814Z,26.80
2022-08-26T13:45:05.909Z,26.90
2022-08-26T13:47:34.877Z,27.70
2022-08-26T13:50:06.956Z,27.70
2022-08-26T13:52:35.819Z,27.60
2022-08-26T13:55:05.358Z,27.70
2022-08-26T13:57:34.215Z,27.70
2022-08-26T14:00:03.849Z,28.00
2022-08-26T14:02:32.691Z,27.80
2022-08-26T14:05:01.665Z,28.70
2022-08-26T14:07:32.229Z,28.90
2022-08-26T14:10:01.915Z,28.80
2022-08-26T14:12:30.821Z,29.00
2022-08-26T14:15:00.715Z,28.40
2022-08-26T14:17:30.780Z,28.10
2022-08-26T14:20:00.130Z,27.90
2022-08-26T14:22:31.622Z,27.50
2022-08-26T14:25:01.000Z,27.40
2022-08-26T14:27:29.880Z,27.30
2022-08-26T14:29:59.796Z,27.20
2022-08-26T14:32:30.232Z,27.10
2022-08-26T14:34:59.366Z,27.10
2022-08-26T14:37:28.414Z,27.00
2022-08-26T14:39:58.872Z,27.00
2022-08-26T14:42:31.399Z,27.00
2022-08-26T14:45:03.505Z,27.00
2022-08-26T14:47:32.699Z,27.00
2022-08-26T14:50:01.983Z,26.90
2022-08-26T14:52:51.154Z,26.80
2022-08-26T14:55:20.851Z,26.80
2022-08-26T14:57:49.803Z,26.70
2022-08-26T15:00:19.074Z,26.70
2022-08-26T15:02:48.226Z,26.60
2022-08-26T15:05:17.463Z,26.60
2022-08-26T15:07:46.264Z,26.60
2022-08-26T15:10:17.294Z,26.60
2022-08-26T15:12:47.815Z,26.50
2022-08-26T15:15:18.884Z,26.60
2022-08-26T15:17:47.871Z,26.40
2022-08-26T15:20:18.454Z,26.40
2022-08-26T15:22:47.362Z,26.30
2022-08-26T15:25:16.969Z,26.30
2022-08-26T15:27:47.282Z,26.30
2022-08-26T15:30:17.035Z,26.30
2022-08-26T15:32:45.929Z,26.30
2022-08-26T15:35:14.874Z,26.20
2022-08-26T15:37:43.785Z,26.30
2022-08-26T15:40:13.734Z,26.10
2022-08-26T15:42:42.706Z,26.20
2022-08-26T15:45:24.788Z,26.00
2022-08-26T15:48:04.327Z,26.00
2022-08-26T15:50:33.253Z,26.00
2022-08-26T15:53:01.997Z,25.90
2022-08-26T15:55:30.819Z,25.80
2022-08-26T15:58:00.240Z,25.80
2022-08-26T16:00:31.583Z,25.70
2022-08-26T16:03:00.509Z,25.70
2022-08-26T16:05:29.420Z,25.60
2022-08-26T16:07:58.408Z,25.60
2022-08-26T16:10:27.990Z,25.50
2022-08-26T16:12:57.223Z,25.50
2022-08-26T16:15:26.326Z,25.40
2022-08-26T16:17:56.677Z,25.30
2022-08-26T16:20:26.406Z,25.30
2022-08-26T16:22:55.376Z,25.20
2022-08-26T16:25:24.522Z,25.10
2022-08-26T16:27:53.686Z,25.00
2022-08-26T16:30:23.754Z,24.90
2022-08-26T16:32:52.952Z,24.90
2022-08-26T16:35:23.506Z,24.80
2022-08-26T16:37:52.472Z,24.70
2022-08-26T16:40:23.230Z,24.70
2022-08-26T16:42:52.472Z,24.60
2022-08-26T16:45:21.542Z,24.50
2022-08-26T16:47:51.321Z,24.40
2022-08-26T16:50:21.230Z,24.30
2022-08-26T16:52:55.785Z,24.20
2022-08-26T16:55:25.356Z,24.10
2022-08-26T16:57:54.473Z,24.10
2022-08-26T17:00:27.809Z,23.90
2022-08-26T17:02:57.132Z,23.90
2022-08-26T17:05:26.763Z,23.80
2022-08-26T17:07:58.308Z,23.70
2022-08-26T17:10:28.857Z,23.60
2022-08-26T17:12:58.556Z,23.50
2022-08-26T17:15:27.938Z,23.30
2022-08-26T17:17:57.717Z,23.30
2022-08-26T17:20:27.250Z,23.10
2022-08-26T17:22:59.381Z,23.00
2022-08-26T17:25:30.806Z,22.90
2022-08-26T17:28:00.645Z,22.80
2022-08-26T17:30:29.843Z,22.60
2022-08-26T17:33:00.031Z,22.50
2022-08-26T17:35:29.049Z,22.40
2022-08-26T17:38:00.037Z,22.30
2022-08-26T17:40:30.956Z,22.10
2022-08-26T17:43:00.327Z,22.00
2022-08-26T17:45:29.549Z,21.90
2022-08-26T17:47:58.719Z,21.80
2022-08-26T17:50:27.691Z,21.60
2022-08-26T17:52:58.809Z,21.50
2022-08-26T17:55:27.826Z,21.40
2022-08-26T17:57:56.729Z,21.30
2022-08-26T18:00:27.879Z,21.20
2022-08-26T18:02:57.154Z,21.10
2022-08-26T18:05:26.448Z,21.00
2022-08-26T18:07:55.260Z,20.90
2022-08-26T18:10:26.438Z,20.80
2022-08-26T18:12:55.328Z,20.70
2022-08-26T18:15:25.727Z,20.70
2022-08-26T18:17:54.677Z,20.60
2022-08-26T18:20:23.686Z,20.60
2022-08-26T18:22:52.569Z,20.40
2022-08-26T18:25:21.589Z,20.40
2022-08-26T18:27:51.949Z,20.30
2022-08-26T18:30:22.950Z,20.20
2022-08-26T18:32:52.168Z,20.20
2022-08-26T18:35:21.698Z,20.10
2022-08-26T18:37:50.477Z,20.10
2022-08-26T18:40:19.610Z,20.00
2022-08-26T18:42:49.371Z,19.90
2022-08-26T18:45:25.579Z,19.90
2022-08-26T18:47:54.441Z,19.90
2022-08-26T18:50:23.390Z,19.80
2022-08-26T18:52:54.377Z,19.80
2022-08-26T18:55:24.693Z,19.70
2022-08-26T18:57:54.155Z,19.70
2022-08-26T19:00:24.667Z,19.70
2022-08-26T19:02:55.966Z,19.60
2022-08-26T19:05:25.872Z,19.60
2022-08-26T19:07:55.581Z,19.50
2022-08-26T19:10:24.847Z,19.50
2022-08-26T19:12:55.411Z,19.40
2022-08-26T19:15:29.550Z,19.40
2022-08-26T19:17:58.886Z,19.30
2022-08-26T19:20:27.806Z,19.30
2022-08-26T19:22:59.660Z,19.20
2022-08-26T19:25:31.881Z,19.20
2022-08-26T19:28:01.221Z,19.10
2022-08-26T19:30:31.721Z,19.10
2022-08-26T19:33:02.654Z,19.10
2022-08-26T19:35:34.041Z,19.00
2022-08-26T19:38:03.772Z,19.00
2022-08-26T19:40:33.721Z,18.90
2022-08-26T19:43:03.132Z,18.90
2022-08-26T19:45:34.835Z,18.80
2022-08-26T19:48:04.909Z,18.80
2022-08-26T19:50:35.850Z,18.80
2022-08-26T19:53:06.453Z,18.80
2022-08-26T19:55:35.421Z,18.80
2022-08-26T19:58:04.503Z,18.70
2022-08-26T20:00:37.009Z,18.70
2022-08-26T20:03:06.281Z,18.70
2022-08-26T20:05:40.928Z,18.70
2022-08-26T20:08:21.958Z,18.60
2022-08-26T20:10:53.026Z,18.60
2022-08-26T20:13:22.943Z,18.60
2022-08-26T20:15:53.537Z,18.60
2022-08-26T20:18:39.883Z,18.50
2022-08-26T20:21:26.311Z,18.50
2022-08-26T20:23:56.973Z,18.40
2022-08-26T20:26:26.315Z,18.40
2022-08-26T20:28:55.699Z,18.40
2022-08-26T20:31:27.749Z,18.40
2022-08-26T20:33:57.222Z,18.30
2022-08-26T20:36:28.424Z,18.30
2022-08-26T20:38:58.325Z,18.30
2022-08-26T20:41:29.295Z,18.30
2022-08-26T20:43:58.674Z,18.20
2022-08-26T20:46:29.571Z,18.20
2022-08-26T20:49:00.848Z,18.10
2022-08-26T20:51:30.212Z,18.10
2022-08-26T20:54:00.747Z,18.10
2022-08-26T20:56:29.961Z,18.10
2022-08-26T20:59:01.693Z,18.00
2022-08-26T21:01:35.395Z,18.00
2022-08-26T21:04:10.063Z,18.00
2022-08-26T21:06:39.846Z,18.00
2022-08-26T21:09:13.155Z,17.90
2022-08-26T21:11:45.274Z,17.90
2022-08-26T21:14:16.682Z,17.90
2022-08-26T21:16:48.236Z,17.80
2022-08-26T21:19:20.490Z,17.80
2022-08-26T21:21:50.441Z,17.80
2022-08-26T21:24:19.401Z,17.70
2022-08-26T21:26:48.734Z,17.70
2022-08-26T21:29:19.738Z,17.70
2022-08-26T21:32:08.987Z,17.70
2022-08-26T21:34:41.562Z,17.60
2022-08-26T21:37:16.347Z,17.60
2022-08-26T21:39:45.676Z,17.60
2022-08-26T21:42:14.831Z,17.50
2022-08-26T21:44:48.979Z,17.50
2022-08-26T21:47:23.803Z,17.50
2022-08-26T21:49:53.056Z,17.40
2022-08-26T21:52:22.832Z,17.30
2022-08-26T21:54:51.800Z,17.30
2022-08-26T21:57:21.421Z,17.30
2022-08-26T21:59:50.622Z,17.20
2022-08-26T22:02:19.744Z,17.20
2022-08-26T22:04:50.441Z,17.20
2022-08-26T22:07:21.823Z,17.10
2022-08-26T22:09:50.791Z,17.10
2022-08-26T22:12:34.958Z,17.00
2022-08-26T22:15:04.342Z,17.00
2022-08-26T22:17:33.390Z,16.90
2022-08-26T22:20:03.800Z,16.90
2022-08-26T22:22:32.770Z,16.90
2022-08-26T22:25:01.684Z,16.90
2022-08-26T22:27:31.885Z,16.80
2022-08-26T22:30:00.941Z,16.80
2022-08-26T22:32:30.063Z,16.80
2022-08-26T22:35:11.348Z,16.70
2022-08-26T22:37:58.021Z,16.70
2022-08-26T22:40:27.094Z,16.70
2022-08-26T22:43:00.130Z,16.70
2022-08-26T22:45:31.684Z,16.70
2022-08-26T22:48:02.352Z,16.70
2022-08-26T22:50:32.853Z,16.60
2022-08-26T22:53:01.790Z,16.60
2022-08-26T22:55:30.825Z,16.60
2022-08-26T22:57:59.702Z,16.60
2022-08-26T23:00:32.395Z,16.50
2022-08-26T23:03:04.967Z,16.50
2022-08-26T23:05:35.489Z,16.50
2022-08-26T23:08:04.686Z,16.50
2022-08-26T23:10:34.073Z,16.40
2022-08-26T23:13:03.945Z,16.40
2022-08-26T23:15:33.602Z,16.40
2022-08-26T23:18:02.648Z,16.30
2022-08-26T23:20:32.583Z,16.30
2022-08-26T23:23:03.332Z,16.30
2022-08-26T23:25:32.882Z,16.30
2022-08-26T23:28:02.648Z,16.30
2022-08-26T23:30:34.830Z,16.20
2022-08-26T23:33:03.703Z,16.20
2022-08-26T23:35:31.603Z,16.20
2022-08-26T23:38:03.822Z,16.20
2022-08-26T23:40:37.592Z,16.20
2022-08-26T23:43:08.556Z,16.20
2022-08-26T23:45:37.788Z,16.10
2022-08-26T23:48:07.868Z,16.10
2022-08-26T23:50:54.259Z,16.10
2022-08-26T23:53:24.724Z,16.10
2022-08-26T23:55:54.494Z,16.10
2022-08-26T23:58:23.912Z,16.10
